K.ruby — 3FEU — position and weather

sailwx.info

Track history (hours):
 
Tides and Currents Weather Stations Pressure Air Temp Water Temp Dewpoint Dewpoint Depression Visibility Wind Speed Wind Dir Waves Ship Positions

K.ruby

Last reported at 2017-Dec-02 12:53 UTC. Time now 2017-Dec-13 09:21 UTC.
Position N 01°15' E 104°03'.
Warning: this ship's position is 10 days out of date.

Length 190 m; draft 6.3 m.

Type: Cargo ship. MMSI: 370185000.

Date/timePositionNaut miles runAvg speedWind from/ knotsBaromVisibWave heightAir tempDewpointWater temp
2017-Dec-02 12:53N 01°15' E 104°03'410.9
2017-Dec-02 12:30N 01°14' E 103°59'4 8.9
2017-Dec-02 12:00N 01°14' E 103°55'2 4.2
2017-Dec-02 11:28N 01°15' E 103°53'0 0.1
2017-Dec-02 10:58N 01°15' E 103°53'0 0.3
2017-Dec-02 10:28N 01°16' E 103°53'0 0.0
2017-Dec-02 09:55N 01°16' E 103°53'0 0.1
2017-Dec-02 09:28N 01°16' E 103°53'0 0.0
2017-Dec-02 08:58N 01°16' E 103°53'0 0.0
2017-Dec-02 08:28N 01°16' E 103°53'0 0.0
2017-Dec-02 07:52N 01°16' E 103°53'0 0.2
2017-Dec-02 07:28N 01°16' E 103°53'0 0.1
2017-Dec-02 06:58N 01°16' E 103°53'0 0.1
2017-Dec-02 06:28N 01°16' E 103°53'0 0.1
2017-Dec-02 05:58N 01°16' E 103°53'0 0.0
2017-Dec-02 05:28N 01°16' E 103°53'0 0.0
2017-Dec-02 04:58N 01°16' E 103°53'0 0.0
2017-Dec-02 04:16N 01°16' E 103°53'0 0.0
2017-Dec-02 03:58N 01°16' E 103°53'0 0.0
2017-Dec-02 03:22N 01°16' E 103°53'0 0.2
2017-Dec-02 02:58N 01°15' E 103°53'2 3.3
2017-Dec-02 02:30N 01°14' E 103°53'1 2.3
2017-Dec-02 02:00N 01°13' E 103°54'3 6.2
2017-Dec-02 01:30N 01°14' E 103°57'4 7.8
2017-Dec-02 01:00N 01°16' E 104°00'4 8.7
2017-Dec-02 00:30N 01°16' E 104°05'  
Track history (hours):
 
Tides and Currents Weather Stations Pressure Air Temp Water Temp Dewpoint Dewpoint Depression Visibility Wind Speed Wind Dir Waves Ship Positions

K.ruby

Last reported at 2017-Dec-02 12:53 UTC. Time now 2017-Dec-13 09:21 UTC.
Position N 01°15' E 104°03'.
Warning: this ship's position is 10 days out of date.

Length 190 m; draft 6.3 m.

Type: Cargo ship. MMSI: 370185000.

Date/timePositionNaut miles runAvg speedWind from/ knotsBaromVisibWave heightAir tempDewpointWater temp
2017-Dec-02 12:53N 01°15' E 104°03'410.9
2017-Dec-02 12:30N 01°14' E 103°59'4 8.9
2017-Dec-02 12:00N 01°14' E 103°55'2 4.2
2017-Dec-02 11:28N 01°15' E 103°53'0 0.1
2017-Dec-02 10:58N 01°15' E 103°53'0 0.3
2017-Dec-02 10:28N 01°16' E 103°53'0 0.0
2017-Dec-02 09:55N 01°16' E 103°53'0 0.1
2017-Dec-02 09:28N 01°16' E 103°53'0 0.0
2017-Dec-02 08:58N 01°16' E 103°53'0 0.0
2017-Dec-02 08:28N 01°16' E 103°53'0 0.0
2017-Dec-02 07:52N 01°16' E 103°53'0 0.2
2017-Dec-02 07:28N 01°16' E 103°53'0 0.1
2017-Dec-02 06:58N 01°16' E 103°53'0 0.1
2017-Dec-02 06:28N 01°16' E 103°53'0 0.1
2017-Dec-02 05:58N 01°16' E 103°53'0 0.0
2017-Dec-02 05:28N 01°16' E 103°53'0 0.0
2017-Dec-02 04:58N 01°16' E 103°53'0 0.0
2017-Dec-02 04:16N 01°16' E 103°53'0 0.0
2017-Dec-02 03:58N 01°16' E 103°53'0 0.0
2017-Dec-02 03:22N 01°16' E 103°53'0 0.2
2017-Dec-02 02:58N 01°15' E 103°53'2 3.3
2017-Dec-02 02:30N 01°14' E 103°53'1 2.3
2017-Dec-02 02:00N 01°13' E 103°54'3 6.2
2017-Dec-02 01:30N 01°14' E 103°57'4 7.8
2017-Dec-02 01:00N 01°16' E 104°00'4 8.7
2017-Dec-02 00:30N 01°16' E 104°05'  

Dump ship's entire track history